Time;durP1;ratioP1;P1;durP2;ratioP2;P2;SDS_P1;SDS_P2;PMS_P1;PMS_P2;Temp;Humidity;BMP_temperature;BMP_pressure;BME280_temperature;BME280_humidity;BME280_pressure;Samples;Min_cycle;Max_cycle;Signal;HPM_P1;HPM_P2
2023/10/17 00:01:18;;;;;;;15.07;11.00;;;19.50;58.90;;;;;;4993235;28;20441;-79
2023/10/17 00:03:46;;;;;;;16.40;10.77;;;19.50;58.90;;;;;;4994011;28;20484;-78
2023/10/17 00:06:16;;;;;;;16.77;10.33;;;19.50;59.00;;;;;;4989427;28;20500;-78
2023/10/17 00:08:50;;;;;;;13.20;10.40;;;19.50;58.90;;;;;;4975689;28;20458;-78
2023/10/17 00:11:20;;;;;;;15.10;10.10;;;19.50;59.00;;;;;;4974709;28;20446;-78
2023/10/17 00:14:02;;;;;;;14.80;10.00;;;19.50;58.90;;;;;;4977326;28;20461;-78
2023/10/17 00:16:33;;;;;;;15.87;10.33;;;19.50;59.20;;;;;;4978876;28;20496;-78
2023/10/17 00:19:05;;;;;;;14.53;10.17;;;19.50;59.20;;;;;;4973339;28;20532;-77
2023/10/17 00:21:33;;;;;;;15.40;10.40;;;19.50;59.20;;;;;;4977670;28;20447;-78
2023/10/17 00:24:08;;;;;;;14.37;10.20;;;19.50;59.20;;;;;;4977171;28;20477;-78
2023/10/17 00:26:37;;;;;;;13.70;10.10;;;19.50;59.20;;;;;;4977615;28;20441;-78
2023/10/17 00:29:06;;;;;;;11.70;9.17;;;19.50;59.20;;;;;;4979328;28;20454;-78
2023/10/17 00:31:36;;;;;;;15.17;10.40;;;19.50;59.20;;;;;;4978228;28;21020;-78
2023/10/17 00:34:13;;;;;;;14.47;10.03;;;19.50;59.20;;;;;;4979097;28;20446;-79
2023/10/17 00:36:48;;;;;;;14.80;9.93;;;19.50;59.30;;;;;;4979398;28;20450;-79
2023/10/17 00:39:23;;;;;;;12.83;9.80;;;19.50;59.30;;;;;;4976554;28;20445;-79
2023/10/17 00:41:52;;;;;;;12.93;9.40;;;19.50;59.30;;;;;;4981251;28;20445;-80
2023/10/17 00:44:30;;;;;;;14.40;9.80;;;19.40;59.30;;;;;;4981321;28;20446;-79
2023/10/17 00:46:58;;;;;;;13.70;9.83;;;19.40;59.40;;;;;;4978671;28;20446;-80
2023/10/17 00:49:27;;;;;;;16.50;10.30;;;19.40;59.20;;;;;;4979283;28;20505;-78
2023/10/17 00:51:56;;;;;;;12.97;9.27;;;19.40;59.40;;;;;;4977391;28;20521;-79
2023/10/17 00:54:26;;;;;;;13.07;9.70;;;19.40;59.40;;;;;;4975865;28;20454;-77
2023/10/17 00:56:55;;;;;;;12.47;9.30;;;19.40;59.40;;;;;;4975570;28;20546;-77
2023/10/17 00:59:25;;;;;;;12.60;9.80;;;19.40;59.40;;;;;;4986215;28;20523;-79
2023/10/17 01:01:55;;;;;;;15.37;10.10;;;19.40;59.40;;;;;;4978152;28;20438;-78
2023/10/17 01:04:24;;;;;;;11.87;9.67;;;19.40;59.40;;;;;;4977114;28;20460;-78
2023/10/17 01:06:54;;;;;;;13.93;10.13;;;19.40;59.40;;;;;;4977007;28;20450;-78
2023/10/17 01:09:25;;;;;;;14.13;10.00;;;19.40;59.60;;;;;;4976377;28;20446;-78
2023/10/17 01:11:55;;;;;;;13.57;9.27;;;19.40;59.50;;;;;;4973929;28;20492;-78
2023/10/17 01:14:24;;;;;;;14.30;9.70;;;19.40;59.60;;;;;;4975617;28;20441;-78
2023/10/17 01:16:57;;;;;;;11.00;9.30;;;19.30;59.60;;;;;;4976099;28;20473;-78
2023/10/17 01:19:26;;;;;;;13.97;10.50;;;19.40;59.80;;;;;;4974430;28;20457;-78
2023/10/17 01:21:56;;;;;;;14.33;9.87;;;19.40;59.70;;;;;;4983497;28;20497;-79
2023/10/17 01:24:25;;;;;;;14.00;10.70;;;19.40;59.70;;;;;;4976075;28;20454;-79
2023/10/17 01:26:55;;;;;;;13.27;9.30;;;19.40;59.80;;;;;;4978780;28;20516;-78
2023/10/17 01:29:23;;;;;;;11.30;8.63;;;19.40;59.70;;;;;;4974589;28;20462;-79
2023/10/17 01:31:54;;;;;;;11.70;9.07;;;19.40;59.80;;;;;;4976447;28;20449;-79
2023/10/17 01:34:22;;;;;;;11.43;8.80;;;19.40;59.70;;;;;;4965924;28;20501;-79
2023/10/17 01:36:53;;;;;;;11.87;9.10;;;19.40;59.80;;;;;;4968515;28;20529;-78
2023/10/17 01:39:21;;;;;;;12.40;9.43;;;19.30;59.80;;;;;;4977569;28;20482;-78
2023/10/17 01:41:51;;;;;;;10.90;8.40;;;19.30;59.80;;;;;;4968176;28;20446;-78
2023/10/17 01:44:19;;;;;;;16.50;10.13;;;19.30;59.80;;;;;;4976158;28;20459;-79
2023/10/17 01:46:49;;;;;;;13.50;10.70;;;19.30;59.80;;;;;;4977564;28;20949;-78
2023/10/17 01:49:19;;;;;;;14.50;10.90;;;19.30;59.80;;;;;;4986256;28;20429;-77
2023/10/17 01:51:49;;;;;;;17.70;11.90;;;19.30;59.80;;;;;;4987316;28;20430;-78
2023/10/17 01:54:17;;;;;;;14.70;10.80;;;19.30;59.70;;;;;;4984190;28;20446;-78
2023/10/17 01:56:48;;;;;;;16.33;11.30;;;19.30;59.90;;;;;;4979677;28;21001;-77
2023/10/17 01:59:25;;;;;;;15.67;11.60;;;19.30;59.80;;;;;;4979281;28;20520;-78
2023/10/17 02:01:59;;;;;;;15.90;11.03;;;19.30;59.90;;;;;;4971874;28;20457;-78
2023/10/17 02:04:27;;;;;;;16.73;11.90;;;19.30;59.80;;;;;;4965862;28;20470;-78
2023/10/17 02:06:56;;;;;;;17.17;11.30;;;19.30;60.00;;;;;;4983624;28;20450;-77
2023/10/17 02:09:44;;;;;;;16.23;11.53;;;19.30;60.00;;;;;;4977162;28;20442;-78
2023/10/17 02:12:13;;;;;;;15.07;11.23;;;19.30;60.00;;;;;;4970334;28;20435;-78
2023/10/17 02:14:45;;;;;;;17.40;12.40;;;19.30;60.00;;;;;;4977318;28;20438;-77
2023/10/17 02:17:15;;;;;;;18.97;12.67;;;19.30;59.90;;;;;;4977646;28;20525;-77
2023/10/17 02:19:43;;;;;;;16.40;12.30;;;19.30;60.10;;;;;;4973324;28;20521;-77
2023/10/17 02:22:12;;;;;;;15.43;11.40;;;19.30;60.00;;;;;;4975250;28;20496;-77
2023/10/17 02:24:43;;;;;;;14.60;11.40;;;19.30;60.20;;;;;;4974719;28;20957;-78
2023/10/17 02:27:13;;;;;;;16.47;12.17;;;19.30;60.20;;;;;;4980549;28;20523;-77
2023/10/17 02:29:44;;;;;;;14.93;11.03;;;19.30;60.00;;;;;;4975588;28;20450;-78
2023/10/17 02:32:13;;;;;;;15.37;11.60;;;19.30;60.20;;;;;;4975133;28;20457;-77
2023/10/17 02:34:43;;;;;;;18.80;12.53;;;19.30;60.10;;;;;;4972655;28;20472;-78
2023/10/17 02:37:11;;;;;;;16.40;11.83;;;19.20;60.20;;;;;;4974894;28;20477;-77
2023/10/17 02:39:40;;;;;;;16.10;11.57;;;19.30;60.20;;;;;;4983459;28;20525;-77
2023/10/17 02:42:08;;;;;;;16.60;12.13;;;19.30;60.10;;;;;;4984159;28;20442;-78
2023/10/17 02:44:39;;;;;;;15.00;11.23;;;19.30;60.20;;;;;;4983455;28;20474;-77
2023/10/17 02:47:11;;;;;;;16.20;11.87;;;19.20;60.10;;;;;;4983351;28;21001;-77
2023/10/17 02:49:43;;;;;;;16.10;10.80;;;19.20;60.10;;;;;;4971923;28;20465;-78
2023/10/17 02:52:17;;;;;;;14.73;11.10;;;19.20;60.20;;;;;;4980730;28;20461;-77
2023/10/17 02:54:56;;;;;;;16.20;11.20;;;19.20;60.30;;;;;;4974572;28;20945;-77
2023/10/17 02:57:26;;;;;;;15.60;11.20;;;19.20;60.30;;;;;;4974476;28;20481;-77
2023/10/17 03:00:07;;;;;;;14.73;11.30;;;19.20;60.20;;;;;;4985858;28;21030;-77
2023/10/17 03:02:37;;;;;;;14.30;11.20;;;19.20;60.40;;;;;;4973629;28;20457;-77
2023/10/17 03:05:11;;;;;;;15.13;10.97;;;19.20;60.50;;;;;;4967996;28;20934;-77
2023/10/17 03:07:42;;;;;;;17.17;11.40;;;19.20;60.30;;;;;;4971824;28;20532;-78
2023/10/17 03:10:20;;;;;;;15.60;11.03;;;19.20;60.70;;;;;;4974394;28;20520;-78
2023/10/17 03:12:54;;;;;;;18.40;10.80;;;19.20;60.50;;;;;;4977112;28;20473;-78
2023/10/17 03:15:29;;;;;;;12.90;9.27;;;19.20;60.40;;;;;;4975016;28;20481;-78
2023/10/17 03:18:00;;;;;;;13.70;10.30;;;19.20;60.50;;;;;;4975084;28;20478;-78
2023/10/17 03:20:40;;;;;;;13.57;10.10;;;19.20;60.40;;;;;;4974052;28;20453;-77
2023/10/17 03:23:10;;;;;;;13.67;10.50;;;19.20;60.40;;;;;;4967320;28;20478;-77
2023/10/17 03:25:37;;;;;;;13.20;10.13;;;19.20;60.50;;;;;;4974910;28;20469;-79
2023/10/17 03:28:08;;;;;;;16.30;10.87;;;19.20;60.40;;;;;;4975557;28;20488;-78
2023/10/17 03:30:37;;;;;;;13.07;9.83;;;19.20;60.60;;;;;;4975585;28;20442;-77
2023/10/17 03:33:13;;;;;;;14.40;9.93;;;19.20;60.70;;;;;;4975450;28;20525;-77
2023/10/17 03:36:05;;;;;;;14.00;9.83;;;19.20;60.80;;;;;;4974574;28;20457;-77
2023/10/17 03:38:37;;;;;;;12.97;9.67;;;19.20;60.70;;;;;;4973840;28;20989;-77
2023/10/17 03:41:06;;;;;;;15.23;10.53;;;19.20;60.70;;;;;;4966775;28;20508;-77
2023/10/17 03:43:39;;;;;;;14.10;10.50;;;19.10;60.60;;;;;;4967197;28;20472;-77
2023/10/17 03:46:07;;;;;;;11.50;9.73;;;19.20;60.50;;;;;;4967765;28;20489;-77
2023/10/17 03:48:37;;;;;;;12.50;8.80;;;19.20;60.80;;;;;;4972540;28;20533;-78
2023/10/17 03:51:10;;;;;;;12.30;9.50;;;19.20;60.80;;;;;;4963724;28;20439;-78
2023/10/17 03:53:47;;;;;;;15.10;10.40;;;19.10;60.70;;;;;;4970412;28;20446;-78
2023/10/17 03:56:24;;;;;;;12.90;9.67;;;19.10;60.70;;;;;;4967793;28;20445;-78
2023/10/17 03:58:57;;;;;;;13.80;9.37;;;19.10;60.80;;;;;;4973257;28;20552;-78
2023/10/17 04:01:26;;;;;;;12.47;9.70;;;19.10;60.90;;;;;;4969855;28;20450;-77
2023/10/17 04:03:55;;;;;;;15.73;9.57;;;19.20;60.90;;;;;;4964068;28;20446;-77
2023/10/17 04:06:34;;;;;;;11.53;8.90;;;19.10;60.80;;;;;;4970855;28;20462;-76
2023/10/17 04:09:21;;;;;;;12.00;9.00;;;19.10;60.80;;;;;;4973491;28;20552;-76
2023/10/17 04:11:51;;;;;;;10.97;8.70;;;19.10;60.90;;;;;;4980880;28;20545;-77
2023/10/17 04:14:21;;;;;;;11.93;8.90;;;19.10;60.80;;;;;;4974392;28;20442;-76
2023/10/17 04:16:49;;;;;;;13.53;9.10;;;19.10;60.90;;;;;;4966657;28;20561;-77
2023/10/17 04:19:18;;;;;;;11.50;9.30;;;19.20;61.10;;;;;;4979906;28;20521;-76
2023/10/17 04:21:51;;;;;;;10.63;8.50;;;19.10;60.80;;;;;;4971259;28;20549;-76
2023/10/17 04:24:34;;;;;;;12.30;9.30;;;19.10;60.80;;;;;;4969289;28;20450;-76
2023/10/17 04:27:19;;;;;;;10.57;8.60;;;19.20;61.10;;;;;;4974278;28;20470;-76
2023/10/17 04:29:51;;;;;;;9.93;8.40;;;19.10;60.80;;;;;;4965771;28;20430;-78
2023/10/17 04:32:20;;;;;;;10.53;8.67;;;19.10;61.00;;;;;;4974440;28;20466;-76
2023/10/17 04:34:48;;;;;;;11.53;8.83;;;19.10;61.10;;;;;;4973829;28;20463;-76
2023/10/17 04:37:24;;;;;;;10.57;8.23;;;19.10;60.90;;;;;;4965985;28;20482;-76
2023/10/17 04:39:57;;;;;;;11.40;8.87;;;19.10;61.10;;;;;;4973835;28;20433;-76
2023/10/17 04:42:47;;;;;;;11.20;8.50;;;19.10;61.10;;;;;;4976661;28;20507;-77
2023/10/17 04:45:13;;;;;;;12.57;8.30;;;19.10;61.00;;;;;;4965742;28;20517;-77
2023/10/17 04:47:45;;;;;;;10.03;7.87;;;19.10;61.10;;;;;;4965977;28;20458;-77
2023/10/17 04:50:12;;;;;;;9.27;7.90;;;19.10;61.10;;;;;;4970013;28;20447;-77
2023/10/17 04:52:44;;;;;;;9.47;7.60;;;19.10;61.10;;;;;;4970261;28;20473;-77
2023/10/17 04:55:18;;;;;;;9.63;8.40;;;19.10;61.10;;;;;;4979002;28;20473;-78
2023/10/17 04:57:56;;;;;;;8.77;7.70;;;19.10;61.20;;;;;;4989360;28;20556;-77
2023/10/17 05:00:52;;;;;;;10.70;7.70;;;19.10;61.20;;;;;;4977370;28;20493;-78
2023/10/17 05:03:27;;;;;;;10.83;8.20;;;19.10;61.20;;;;;;4989827;28;20504;-77
2023/10/17 05:06:15;;;;;;;9.30;7.77;;;19.10;61.40;;;;;;4984348;28;20484;-77
2023/10/17 05:09:00;;;;;;;8.80;7.60;;;19.10;61.20;;;;;;4972261;28;20463;-77
2023/10/17 06:18:18;;;;;;;8.10;7.00;;;18.80;61.80;;;;;;4967035;28;20478;-76
2023/10/17 06:32:04;;;;;;;8.90;6.13;;;18.80;61.90;;;;;;4971473;28;20474;-77
2023/10/17 06:34:33;;;;;;;8.17;6.90;;;18.80;61.80;;;;;;4983283;28;20477;-78
2023/10/17 06:37:01;;;;;;;7.13;6.43;;;18.80;61.90;;;;;;4966351;28;20477;-77
2023/10/17 06:39:37;;;;;;;7.00;6.10;;;18.80;62.00;;;;;;4966820;28;20470;-77
2023/10/17 06:42:18;;;;;;;8.80;6.60;;;18.90;62.00;;;;;;4967114;28;20442;-77
2023/10/17 06:44:54;;;;;;;8.13;6.40;;;18.90;61.90;;;;;;4969375;28;20505;-77
2023/10/17 06:47:30;;;;;;;7.83;6.23;;;18.90;61.70;;;;;;4967430;28;20533;-77
2023/10/17 06:53:01;;;;;;;6.90;6.20;;;18.90;62.00;;;;;;4970235;28;20422;-77
2023/10/17 06:55:29;;;;;;;7.73;6.43;;;18.90;61.90;;;;;;4974228;28;20536;-78
2023/10/17 06:58:08;;;;;;;7.73;6.30;;;18.90;61.90;;;;;;4966310;28;20570;-77
2023/10/17 07:00:49;;;;;;;6.80;6.10;;;18.90;61.90;;;;;;4978561;28;20430;-77
2023/10/17 07:03:24;;;;;;;6.80;6.03;;;19.00;61.90;;;;;;4980357;28;20465;-78
2023/10/17 07:05:55;;;;;;;7.13;5.80;;;19.00;61.90;;;;;;4962524;28;20472;-78
2023/10/17 07:08:27;;;;;;;6.73;6.03;;;19.00;61.90;;;;;;4973930;28;20533;-77
2023/10/17 07:11:02;;;;;;;7.13;5.70;;;19.00;61.80;;;;;;4965813;28;20477;-77
2023/10/17 07:13:54;;;;;;;6.70;5.93;;;19.00;61.90;;;;;;4965608;28;20532;-77
2023/10/17 07:16:26;;;;;;;6.60;5.70;;;19.10;61.90;;;;;;4977757;28;20460;-74
2023/10/17 07:19:09;;;;;;;9.10;6.40;;;19.10;61.80;;;;;;4977001;28;20556;-75
2023/10/17 07:21:55;;;;;;;8.77;6.10;;;19.20;61.90;;;;;;4975684;28;20430;-76
2023/10/17 07:24:24;;;;;;;7.23;5.67;;;19.20;61.80;;;;;;4972433;28;20513;-76
2023/10/17 07:26:53;;;;;;;6.40;5.80;;;19.20;61.80;;;;;;4961298;28;20449;-75
2023/10/17 07:29:22;;;;;;;6.27;5.67;;;19.20;61.70;;;;;;4972975;28;20453;-76
2023/10/17 07:31:52;;;;;;;6.13;5.53;;;19.30;61.80;;;;;;4973663;28;20442;-77
2023/10/17 07:34:22;;;;;;;7.13;5.63;;;19.30;61.70;;;;;;4975289;28;20509;-78
2023/10/17 07:36:58;;;;;;;6.90;6.20;;;19.40;61.80;;;;;;4969937;28;20458;-77
2023/10/17 07:39:29;;;;;;;8.30;5.10;;;19.40;61.60;;;;;;4965631;28;20469;-77
2023/10/17 07:41:58;;;;;;;7.97;5.77;;;19.50;61.70;;;;;;4967907;28;20453;-77
2023/10/17 07:44:27;;;;;;;5.80;5.23;;;19.50;61.70;;;;;;4968055;28;20458;-78
2023/10/17 07:47:08;;;;;;;7.63;5.40;;;19.60;61.70;;;;;;4973327;28;20461;-77
2023/10/17 07:49:38;;;;;;;6.17;5.57;;;19.60;61.40;;;;;;4973643;28;20555;-78
2023/10/17 07:52:12;;;;;;;6.13;5.53;;;19.70;61.40;;;;;;4975354;28;20892;-77
2023/10/17 07:54:45;;;;;;;5.93;5.33;;;19.70;61.20;;;;;;4977315;28;20442;-78
2023/10/17 07:57:17;;;;;;;7.87;5.40;;;19.70;61.20;;;;;;4978245;28;20531;-77
2023/10/17 07:59:51;;;;;;;5.90;5.30;;;19.80;61.20;;;;;;4988529;28;20481;-77
2023/10/17 08:02:20;;;;;;;5.90;5.30;;;19.90;61.30;;;;;;4979044;28;20561;-77
2023/10/17 08:04:53;;;;;;;5.00;4.60;;;19.90;60.90;;;;;;4980854;28;20470;-77
2023/10/17 08:07:21;;;;;;;6.50;5.30;;;20.00;60.90;;;;;;4973525;28;20521;-78
2023/10/17 08:09:56;;;;;;;6.13;5.17;;;20.10;61.10;;;;;;4986757;28;20494;-78
2023/10/17 08:12:24;;;;;;;6.50;5.40;;;20.20;61.00;;;;;;4980885;28;20450;-78
2023/10/17 08:14:59;;;;;;;6.50;5.90;;;20.20;61.00;;;;;;4975897;28;20450;-77
2023/10/17 08:17:28;;;;;;;6.97;5.33;;;20.30;61.20;;;;;;4974378;28;20481;-77
2023/10/17 08:20:38;;;;;;;5.70;5.10;;;20.30;61.40;;;;;;4978764;28;20500;-77
2023/10/17 08:23:06;;;;;;;6.03;5.43;;;20.40;61.20;;;;;;4976768;28;20478;-78
2023/10/17 08:25:52;;;;;;;9.93;5.30;;;20.50;61.80;;;;;;4974470;28;20529;-76
2023/10/17 08:28:36;;;;;;;7.37;5.10;;;20.60;62.10;;;;;;4972133;28;20569;-76
2023/10/17 08:31:17;;;;;;;5.60;5.10;;;20.90;62.30;;;;;;4976309;28;20536;-78
2023/10/17 08:33:50;;;;;;;5.33;4.83;;;21.10;62.20;;;;;;4989793;28;20492;-78
2023/10/17 08:36:23;;;;;;;6.63;5.30;;;21.30;62.10;;;;;;4978300;28;20812;-78
2023/10/17 08:38:54;;;;;;;5.30;4.80;;;21.50;62.20;;;;;;4977777;28;20544;-78
2023/10/17 08:41:23;;;;;;;5.27;4.60;;;21.70;62.20;;;;;;4978377;28;20806;-77
2023/10/17 08:43:53;;;;;;;5.20;4.70;;;21.80;62.20;;;;;;4985730;28;20461;-77
2023/10/17 08:46:21;;;;;;;5.40;4.90;;;22.00;61.90;;;;;;4972166;28;20449;-77
2023/10/17 08:48:49;;;;;;;4.63;3.90;;;22.10;61.90;;;;;;4986166;28;20428;-78
2023/10/17 08:51:18;;;;;;;5.63;5.00;;;22.30;61.90;;;;;;4969913;28;20417;-78
2023/10/17 08:53:56;;;;;;;5.47;4.50;;;22.40;61.70;;;;;;4963572;28;20426;-78
2023/10/17 08:56:26;;;;;;;5.67;4.90;;;22.60;61.70;;;;;;4966108;28;20485;-77
2023/10/17 08:59:03;;;;;;;4.60;4.17;;;22.70;61.40;;;;;;4977633;28;21166;-78
2023/10/17 09:01:32;;;;;;;5.63;5.13;;;22.90;61.30;;;;;;4974055;28;20526;-79
2023/10/17 09:04:03;;;;;;;6.33;5.00;;;23.10;61.10;;;;;;4969668;28;20462;-78
2023/10/17 09:06:37;;;;;;;5.50;5.00;;;23.20;60.90;;;;;;4975511;28;20462;-77
2023/10/17 09:09:18;;;;;;;5.80;5.20;;;23.30;60.70;;;;;;4982148;28;20504;-78
2023/10/17 09:12:19;;;;;;;5.80;5.17;;;23.40;60.40;;;;;;4971082;28;20438;-78
2023/10/17 09:14:49;;;;;;;5.40;5.00;;;23.40;60.10;;;;;;4967940;28;20533;-78
2023/10/17 09:17:28;;;;;;;5.17;4.77;;;23.50;60.00;;;;;;4977705;28;20443;-77
2023/10/17 09:20:05;;;;;;;5.43;4.93;;;23.50;59.90;;;;;;4977917;28;20473;-78
2023/10/17 09:22:40;;;;;;;6.67;5.07;;;23.60;60.00;;;;;;4976787;28;20450;-77
2023/10/17 09:25:19;;;;;;;5.80;5.30;;;23.60;59.60;;;;;;4973666;28;20516;-78
2023/10/17 09:27:52;;;;;;;5.87;5.27;;;23.80;59.80;;;;;;4974196;28;20573;-77
2023/10/17 09:30:23;;;;;;;7.27;5.70;;;23.80;59.60;;;;;;4978021;28;20457;-78
2023/10/17 09:32:52;;;;;;;5.70;5.20;;;23.90;59.40;;;;;;4979604;28;20455;-77
2023/10/17 09:35:20;;;;;;;5.73;4.97;;;24.00;59.60;;;;;;4967824;28;20455;-77
2023/10/17 09:37:51;;;;;;;5.53;5.03;;;24.10;59.40;;;;;;4970531;28;20437;-77
2023/10/17 09:40:25;;;;;;;5.93;5.43;;;24.20;59.50;;;;;;4975316;28;20444;-78
2023/10/17 09:42:53;;;;;;;5.60;5.10;;;24.40;59.30;;;;;;4974575;28;20473;-78
2023/10/17 09:45:21;;;;;;;5.83;5.23;;;24.60;59.20;;;;;;4978001;28;20433;-77
2023/10/17 09:48:04;;;;;;;5.17;4.77;;;24.80;59.20;;;;;;4976285;28;20444;-77
2023/10/17 09:50:34;;;;;;;5.87;5.27;;;24.90;59.20;;;;;;4976079;28;20469;-78
2023/10/17 09:53:09;;;;;;;5.60;5.13;;;25.10;59.10;;;;;;4978270;28;20431;-78
2023/10/17 09:55:37;;;;;;;5.77;4.90;;;25.20;59.00;;;;;;4977710;28;20472;-77
2023/10/17 09:58:08;;;;;;;4.87;4.47;;;25.50;58.80;;;;;;4978557;28;20498;-76
2023/10/17 10:00:39;;;;;;;4.70;4.40;;;25.70;59.40;;;;;;4969131;28;20460;-77
2023/10/17 10:03:08;;;;;;;4.60;4.20;;;25.90;58.50;;;;;;4973623;28;20512;-79
2023/10/17 10:05:42;;;;;;;4.37;4.00;;;26.20;58.30;;;;;;4968738;28;20423;-78
2023/10/17 10:08:32;;;;;;;5.50;5.00;;;26.40;58.00;;;;;;4962249;28;20446;-78
2023/10/17 10:11:00;;;;;;;6.70;6.00;;;26.60;57.90;;;;;;4972466;28;20428;-78
2023/10/17 10:13:31;;;;;;;7.83;6.67;;;26.80;57.70;;;;;;4975141;28;20525;-79
2023/10/17 10:16:01;;;;;;;9.30;7.10;;;27.00;57.50;;;;;;4970591;28;20429;-78
2023/10/17 10:18:58;;;;;;;7.37;6.53;;;27.20;57.20;;;;;;4967751;28;20537;-79
2023/10/17 10:21:53;;;;;;;7.63;6.80;;;27.50;57.10;;;;;;4970081;28;20452;-76
2023/10/17 10:24:33;;;;;;;13.00;6.80;;;27.70;56.60;;;;;;4973994;28;20416;-78
2023/10/17 10:27:25;;;;;;;7.77;6.97;;;27.90;56.30;;;;;;4971438;28;20572;-78
2023/10/17 10:29:54;;;;;;;7.70;6.50;;;28.20;56.10;;;;;;4964128;28;20445;-78
2023/10/17 10:32:33;;;;;;;7.30;6.03;;;28.30;55.80;;;;;;4975957;28;20913;-78
2023/10/17 10:35:03;;;;;;;8.57;6.70;;;28.50;55.60;;;;;;4970857;28;20484;-78
2023/10/17 10:37:32;;;;;;;7.20;6.50;;;28.70;55.30;;;;;;4976617;28;20462;-78
2023/10/17 10:40:17;;;;;;;7.37;5.93;;;28.90;55.00;;;;;;4979815;28;20478;-78
2023/10/17 10:42:47;;;;;;;6.60;5.90;;;29.20;54.80;;;;;;4972295;28;20521;-79
2023/10/17 10:45:26;;;;;;;6.70;5.70;;;29.40;54.50;;;;;;4962924;28;20554;-77
2023/10/17 10:47:58;;;;;;;6.93;6.00;;;29.60;54.10;;;;;;4970194;28;20440;-79
2023/10/17 10:50:29;;;;;;;6.60;5.93;;;29.90;53.90;;;;;;4968061;28;20451;-77
2023/10/17 10:52:58;;;;;;;7.17;6.47;;;30.20;53.60;;;;;;4970960;28;20454;-77
2023/10/17 10:55:28;;;;;;;6.60;5.50;;;30.40;53.30;;;;;;4975206;28;20485;-79
2023/10/17 10:57:56;;;;;;;5.53;5.03;;;30.80;53.50;;;;;;4978234;28;20504;-78
2023/10/17 11:00:24;;;;;;;5.50;5.00;;;31.60;52.10;;;;;;4973470;28;20539;-79
2023/10/17 11:02:52;;;;;;;6.20;5.60;;;32.50;50.60;;;;;;4983110;28;20444;-79
2023/10/17 11:05:20;;;;;;;5.43;4.90;;;33.50;49.00;;;;;;4992688;28;20458;-80
2023/10/17 11:07:48;;;;;;;5.00;4.60;;;34.40;47.40;;;;;;4991714;28;20462;-79
2023/10/17 11:10:18;;;;;;;4.67;4.37;;;35.40;45.70;;;;;;4983216;28;20797;-79
2023/10/17 11:12:55;;;;;;;4.70;4.30;;;36.30;44.10;;;;;;4968786;28;20452;-78
2023/10/17 11:15:27;;;;;;;4.17;3.97;;;37.20;42.40;;;;;;4975957;28;20880;-77
2023/10/17 11:18:07;;;;;;;4.07;3.83;;;38.00;40.80;;;;;;4977503;28;20525;-77
2023/10/17 11:20:36;;;;;;;3.63;3.43;;;38.70;39.50;;;;;;4979063;28;20477;-77
2023/10/17 11:23:05;;;;;;;3.50;3.40;;;39.30;38.60;;;;;;4982789;28;20454;-77
2023/10/17 11:25:34;;;;;;;4.00;3.80;;;39.90;37.40;;;;;;4977636;28;20520;-77
2023/10/17 11:28:06;;;;;;;3.37;3.27;;;40.40;36.60;;;;;;4974871;28;21000;-78
2023/10/17 11:30:40;;;;;;;3.37;3.23;;;40.90;35.70;;;;;;4978206;28;20453;-78
2023/10/17 11:33:10;;;;;;;3.87;3.67;;;40.60;33.60;;;;;;4975962;28;20492;-77
2023/10/17 11:35:46;;;;;;;3.50;3.30;;;39.40;34.80;;;;;;4975823;28;20437;-77
2023/10/17 11:38:33;;;;;;;4.03;3.83;;;38.40;36.40;;;;;;4974742;28;21003;-77
2023/10/17 11:41:15;;;;;;;3.50;3.30;;;37.60;38.50;;;;;;4978658;28;20504;-77
2023/10/17 11:43:53;;;;;;;3.60;3.40;;;38.10;38.90;;;;;;4975403;28;20462;-75
2023/10/17 11:46:28;;;;;;;3.30;3.20;;;39.30;37.40;;;;;;4971736;28;20523;-76
2023/10/17 11:49:14;;;;;;;3.20;3.10;;;40.60;35.80;;;;;;4971094;28;20464;-80
2023/10/17 11:51:42;;;;;;;2.70;2.60;;;41.80;34.20;;;;;;4968361;28;20461;-80
2023/10/17 11:54:11;;;;;;;2.67;2.57;;;42.50;33.00;;;;;;4983592;28;20457;-79
2023/10/17 11:57:09;;;;;;;2.40;2.30;;;43.20;32.10;;;;;;4974145;28;20429;-79
2023/10/17 11:59:39;;;;;;;2.33;2.23;;;44.00;31.20;;;;;;4976715;28;20441;-79
2023/10/17 12:02:11;;;;;;;2.70;2.60;;;43.90;30.90;;;;;;4969453;28;20485;-76
2023/10/17 12:04:39;;;;;;;2.00;2.00;;;44.40;30.30;;;;;;4974827;28;20437;-79
2023/10/17 12:07:07;;;;;;;2.20;2.20;;;44.90;29.90;;;;;;4965455;28;20453;-78
2023/10/17 12:09:35;;;;;;;2.47;2.37;;;44.40;29.20;;;;;;4980467;28;20536;-77
2023/10/17 12:12:03;;;;;;;2.33;2.23;;;43.10;29.50;;;;;;4969584;28;20438;-78
2023/10/17 12:14:31;;;;;;;2.80;2.70;;;42.10;30.10;;;;;;4965482;28;20441;-77
2023/10/17 12:17:02;;;;;;;2.80;2.70;;;40.60;31.80;;;;;;4970680;28;20497;-77
2023/10/17 12:19:31;;;;;;;2.67;2.57;;;39.50;33.30;;;;;;4964426;28;20454;-77
2023/10/17 12:22:00;;;;;;;2.90;2.70;;;38.30;34.60;;;;;;4965834;28;20473;-77
2023/10/17 12:24:29;;;;;;;2.80;2.70;;;37.80;36.70;;;;;;4965430;28;20536;-77
2023/10/17 12:26:58;;;;;;;2.83;2.73;;;37.50;38.00;;;;;;4971982;28;20935;-77
2023/10/17 12:29:28;;;;;;;2.50;2.40;;;38.90;36.80;;;;;;4969879;28;20544;-77
2023/10/17 12:31:57;;;;;;;2.50;2.40;;;39.40;35.10;;;;;;4965993;28;20501;-77
2023/10/17 12:34:27;;;;;;;2.97;2.77;;;38.90;33.80;;;;;;4965452;28;20808;-77
2023/10/17 12:36:55;;;;;;;2.70;2.60;;;39.00;36.40;;;;;;4962247;28;20521;-77
2023/10/17 12:39:31;;;;;;;2.43;2.33;;;40.10;34.90;;;;;;4969388;28;20521;-76
2023/10/17 12:41:59;;;;;;;2.43;2.23;;;40.10;32.40;;;;;;4966270;28;20475;-77
2023/10/17 12:44:27;;;;;;;2.20;2.10;;;39.40;32.90;;;;;;4971508;28;20980;-77
2023/10/17 12:46:55;;;;;;;2.60;2.50;;;39.40;35.60;;;;;;4971872;28;20458;-76
2023/10/17 12:49:23;;;;;;;2.57;2.47;;;40.00;33.20;;;;;;4968127;28;20441;-76
2023/10/17 12:51:55;;;;;;;2.00;1.90;;;40.70;33.50;;;;;;4973399;28;20429;-77
2023/10/17 12:54:26;;;;;;;2.10;2.10;;;41.50;32.20;;;;;;4977668;28;20964;-77
2023/10/17 12:56:54;;;;;;;2.00;2.00;;;42.30;31.30;;;;;;4981029;28;20537;-75
2023/10/17 12:59:22;;;;;;;1.83;1.83;;;42.90;30.40;;;;;;4965714;28;20514;-76
2023/10/17 13:01:51;;;;;;;1.83;1.83;;;43.40;29.90;;;;;;4978823;28;21016;-77
2023/10/17 13:04:20;;;;;;;2.33;2.23;;;43.70;29.40;;;;;;4977679;28;20438;-77
2023/10/17 13:06:53;;;;;;;1.83;1.83;;;44.10;29.10;;;;;;4976001;28;20484;-77
2023/10/17 13:09:23;;;;;;;1.90;1.90;;;44.50;28.90;;;;;;4968654;28;20465;-78
2023/10/17 13:11:51;;;;;;;1.80;1.80;;;44.70;28.50;;;;;;4965202;28;20847;-78
2023/10/17 13:14:19;;;;;;;1.83;1.83;;;45.00;28.20;;;;;;4966621;28;20455;-78
2023/10/17 13:16:47;;;;;;;2.20;2.10;;;45.10;28.10;;;;;;4963581;28;20485;-78
2023/10/17 13:19:18;;;;;;;2.00;2.00;;;44.60;27.40;;;;;;4973128;28;20466;-78
2023/10/17 13:21:47;;;;;;;2.00;1.80;;;43.00;28.70;;;;;;4976469;28;20512;-77
2023/10/17 13:24:15;;;;;;;2.23;2.13;;;41.50;29.60;;;;;;4976313;28;20453;-78
2023/10/17 13:26:46;;;;;;;1.90;1.83;;;39.90;31.20;;;;;;4984482;28;20476;-76
2023/10/17 13:29:14;;;;;;;2.40;2.30;;;39.10;33.60;;;;;;4973852;28;20450;-76
2023/10/17 13:31:41;;;;;;;2.30;2.20;;;38.30;33.10;;;;;;4972228;28;20485;-76
2023/10/17 13:34:09;;;;;;;2.13;2.03;;;37.40;34.10;;;;;;4981275;28;20441;-77
2023/10/17 13:36:37;;;;;;;2.43;2.33;;;36.60;35.30;;;;;;4987401;28;20541;-76
2023/10/17 13:39:06;;;;;;;6.50;2.90;;;35.90;36.10;;;;;;4976527;28;20466;-77
2023/10/17 13:41:34;;;;;;;3.87;2.53;;;35.30;36.90;;;;;;4973650;28;20478;-77
2023/10/17 13:44:04;;;;;;;2.70;2.60;;;34.80;37.80;;;;;;4964043;28;20439;-76
2023/10/17 13:46:34;;;;;;;2.47;2.27;;;34.40;38.30;;;;;;4974780;28;20533;-78
2023/10/17 13:49:03;;;;;;;2.93;2.63;;;33.90;38.80;;;;;;4965593;28;20477;-77
2023/10/17 13:51:35;;;;;;;3.27;2.50;;;33.60;39.20;;;;;;4974679;28;20887;-78
2023/10/17 13:54:05;;;;;;;2.77;2.60;;;33.20;40.30;;;;;;4975061;28;20446;-77
2023/10/17 13:56:34;;;;;;;2.77;2.67;;;32.80;40.10;;;;;;4974867;28;20457;-77
2023/10/17 13:59:04;;;;;;;4.30;2.50;;;32.50;40.60;;;;;;4966489;28;20448;-76
2023/10/17 14:01:41;;;;;;;2.30;2.20;;;32.40;41.20;;;;;;4974504;28;20561;-77
2023/10/17 14:04:11;;;;;;;2.80;2.30;;;32.20;41.30;;;;;;4983735;28;20441;-78
2023/10/17 14:06:40;;;;;;;3.00;2.80;;;32.00;41.60;;;;;;4992291;28;20537;-77
2023/10/17 14:09:14;;;;;;;2.70;2.50;;;31.90;41.60;;;;;;4986527;28;20493;-76
2023/10/17 14:11:46;;;;;;;2.80;2.60;;;31.70;41.60;;;;;;4986464;28;20449;-76
2023/10/17 14:14:16;;;;;;;3.17;2.50;;;31.60;42.30;;;;;;4979492;28;20453;-77
2023/10/17 14:16:44;;;;;;;2.50;2.40;;;31.70;42.20;;;;;;4984332;28;20445;-77
2023/10/17 14:19:18;;;;;;;3.03;2.73;;;31.70;41.70;;;;;;4983411;28;20525;-77
2023/10/17 14:22:01;;;;;;;3.63;2.70;;;31.40;42.10;;;;;;4981980;28;20474;-77
2023/10/17 14:24:49;;;;;;;3.20;2.67;;;31.10;42.40;;;;;;4982304;28;20447;-78
2023/10/17 14:27:22;;;;;;;2.90;2.70;;;30.80;42.60;;;;;;4980225;28;20497;-79
2023/10/17 14:29:53;;;;;;;2.80;2.60;;;30.50;43.10;;;;;;4989376;28;20456;-79